sensor_id;sensor_type;location;lat;lon;timestamp;P1;durP1;ratioP1;P2;durP2;ratioP2
10166;SDS011;62970;53.130;8.244;2023-04-25T05:26:23;6.47;;;1.80;;
10166;SDS011;62970;53.130;8.244;2023-04-25T05:28:56;5.83;;;1.93;;
10166;SDS011;62970;53.130;8.244;2023-04-25T05:31:26;4.67;;;2.10;;
10166;SDS011;62970;53.130;8.244;2023-04-25T05:33:55;6.20;;;2.20;;
10166;SDS011;62970;53.130;8.244;2023-04-25T05:36:24;6.57;;;2.23;;
10166;SDS011;62970;53.130;8.244;2023-04-25T05:38:54;4.87;;;2.30;;
10166;SDS011;62970;53.130;8.244;2023-04-25T05:41:26;5.03;;;2.20;;
10166;SDS011;62970;53.130;8.244;2023-04-25T05:43:55;6.30;;;2.63;;
10166;SDS011;62970;53.130;8.244;2023-04-25T05:46:24;6.87;;;2.50;;
10166;SDS011;62970;53.130;8.244;2023-04-25T05:54:04;5.87;;;2.20;;
10166;SDS011;62970;53.130;8.244;2023-04-25T05:59:14;4.47;;;2.17;;
10166;SDS011;62970;53.130;8.244;2023-04-25T06:01:43;6.10;;;2.27;;
10166;SDS011;62970;53.130;8.244;2023-04-25T06:18:01;6.27;;;2.50;;
10166;SDS011;62970;53.130;8.244;2023-04-25T06:20:31;7.57;;;2.23;;
10166;SDS011;62970;53.130;8.244;2023-04-25T06:23:00;5.00;;;2.20;;
10166;SDS011;62970;53.130;8.244;2023-04-25T06:25:30;5.60;;;2.30;;
10166;SDS011;62970;53.130;8.244;2023-04-25T06:27:59;6.60;;;2.00;;
10166;SDS011;62970;53.130;8.244;2023-04-25T06:30:32;5.33;;;2.10;;
10166;SDS011;62970;53.130;8.244;2023-04-25T06:33:01;4.67;;;2.07;;
10166;SDS011;62970;53.130;8.244;2023-04-25T06:35:30;4.77;;;1.50;;
10166;SDS011;62970;53.130;8.244;2023-04-25T06:37:59;5.17;;;2.00;;
10166;SDS011;62970;53.130;8.244;2023-04-25T06:40:29;4.87;;;2.00;;
10166;SDS011;62970;53.130;8.244;2023-04-25T06:42:58;4.77;;;1.83;;
10166;SDS011;62970;53.130;8.244;2023-04-25T06:45:33;4.47;;;1.93;;
10166;SDS011;62970;53.130;8.244;2023-04-25T06:48:02;4.47;;;1.97;;
10166;SDS011;62970;53.130;8.244;2023-04-25T06:50:33;10.17;;;2.33;;
10166;SDS011;62970;53.130;8.244;2023-04-25T06:53:02;3.73;;;1.50;;
10166;SDS011;62970;53.130;8.244;2023-04-25T06:55:33;4.77;;;2.00;;
10166;SDS011;62970;53.130;8.244;2023-04-25T06:58:03;3.93;;;1.60;;
10166;SDS011;62970;53.130;8.244;2023-04-25T07:00:35;5.93;;;1.60;;
10166;SDS011;62970;53.130;8.244;2023-04-25T07:03:04;5.93;;;2.00;;
10166;SDS011;62970;53.130;8.244;2023-04-25T07:05:33;3.83;;;1.60;;
10166;SDS011;62970;53.130;8.244;2023-04-25T07:08:03;4.63;;;1.97;;
10166;SDS011;62970;53.130;8.244;2023-04-25T07:10:33;4.60;;;1.67;;
10166;SDS011;62970;53.130;8.244;2023-04-25T07:13:02;3.65;;;1.60;;
10166;SDS011;62970;53.130;8.244;2023-04-25T07:15:34;6.10;;;1.90;;
10166;SDS011;62970;53.130;8.244;2023-04-25T07:18:07;3.40;;;1.60;;
10166;SDS011;62970;53.130;8.244;2023-04-25T07:20:36;3.63;;;1.67;;
10166;SDS011;62970;53.130;8.244;2023-04-25T07:23:05;2.73;;;1.17;;
10166;SDS011;62970;53.130;8.244;2023-04-25T07:25:34;4.37;;;1.70;;
10166;SDS011;62970;53.130;8.244;2023-04-25T07:28:04;3.00;;;1.50;;
10166;SDS011;62970;53.130;8.244;2023-04-25T07:30:33;4.53;;;1.57;;
10166;SDS011;62970;53.130;8.244;2023-04-25T07:33:05;4.30;;;1.40;;
10166;SDS011;62970;53.130;8.244;2023-04-25T07:35:35;3.90;;;1.60;;
10166;SDS011;62970;53.130;8.244;2023-04-25T07:38:04;3.90;;;1.53;;
10166;SDS011;62970;53.130;8.244;2023-04-25T07:40:35;3.77;;;1.50;;
10166;SDS011;62970;53.130;8.244;2023-04-25T07:43:05;4.97;;;1.87;;
10166;SDS011;62970;53.130;8.244;2023-04-25T07:45:34;5.23;;;1.90;;
10166;SDS011;62970;53.130;8.244;2023-04-25T07:48:06;4.43;;;1.50;;
10166;SDS011;62970;53.130;8.244;2023-04-25T07:50:35;3.93;;;1.60;;
10166;SDS011;62970;53.130;8.244;2023-04-25T07:53:04;4.80;;;1.90;;
10166;SDS011;62970;53.130;8.244;2023-04-25T07:55:33;5.20;;;1.90;;
10166;SDS011;62970;53.130;8.244;2023-04-25T07:58:05;3.53;;;1.80;;
10166;SDS011;62970;53.130;8.244;2023-04-25T08:00:34;6.20;;;1.87;;
10166;SDS011;62970;53.130;8.244;2023-04-25T08:03:06;3.17;;;1.70;;
10166;SDS011;62970;53.130;8.244;2023-04-25T08:05:38;3.47;;;1.50;;
10166;SDS011;62970;53.130;8.244;2023-04-25T08:08:07;2.63;;;1.47;;
10166;SDS011;62970;53.130;8.244;2023-04-25T08:10:36;2.47;;;1.20;;
10166;SDS011;62970;53.130;8.244;2023-04-25T08:13:05;4.47;;;1.43;;
10166;SDS011;62970;53.130;8.244;2023-04-25T08:15:35;2.47;;;1.23;;
10166;SDS011;62970;53.130;8.244;2023-04-25T08:18:06;2.23;;;1.27;;
10166;SDS011;62970;53.130;8.244;2023-04-25T08:20:36;1.73;;;1.13;;
10166;SDS011;62970;53.130;8.244;2023-04-25T08:23:05;4.93;;;1.60;;
10166;SDS011;62970;53.130;8.244;2023-04-25T08:25:35;5.53;;;1.90;;
10166;SDS011;62970;53.130;8.244;2023-04-25T08:28:05;2.73;;;1.40;;
10166;SDS011;62970;53.130;8.244;2023-04-25T08:30:34;4.67;;;1.80;;
10166;SDS011;62970;53.130;8.244;2023-04-25T08:33:08;3.17;;;1.30;;
10166;SDS011;62970;53.130;8.244;2023-04-25T08:35:37;3.23;;;1.50;;
10166;SDS011;62970;53.130;8.244;2023-04-25T08:38:06;3.17;;;1.63;;
10166;SDS011;62970;53.130;8.244;2023-04-25T08:40:37;4.60;;;1.50;;
10166;SDS011;62970;53.130;8.244;2023-04-25T08:43:07;10.73;;;1.57;;
10166;SDS011;62970;53.130;8.244;2023-04-25T08:45:39;2.97;;;1.43;;
10166;SDS011;62970;53.130;8.244;2023-04-25T08:48:14;3.57;;;1.43;;
10166;SDS011;62970;53.130;8.244;2023-04-25T08:50:45;4.53;;;1.70;;
10166;SDS011;62970;53.130;8.244;2023-04-25T08:53:20;3.33;;;1.30;;
10166;SDS011;62970;53.130;8.244;2023-04-25T08:55:53;3.10;;;1.10;;
10166;SDS011;62970;53.130;8.244;2023-04-25T08:58:27;2.63;;;1.10;;
10166;SDS011;62970;53.130;8.244;2023-04-25T09:00:56;2.20;;;1.10;;
10166;SDS011;62970;53.130;8.244;2023-04-25T09:03:28;1.00;;;0.90;;
10166;SDS011;62970;53.130;8.244;2023-04-25T09:05:57;2.43;;;1.00;;
10166;SDS011;62970;53.130;8.244;2023-04-25T09:08:27;2.37;;;1.17;;
10166;SDS011;62970;53.130;8.244;2023-04-25T09:10:56;2.93;;;1.13;;
10166;SDS011;62970;53.130;8.244;2023-04-25T09:13:25;5.50;;;2.07;;
10166;SDS011;62970;53.130;8.244;2023-04-25T09:15:57;2.57;;;1.33;;
10166;SDS011;62970;53.130;8.244;2023-04-25T09:18:31;4.43;;;1.50;;
10166;SDS011;62970;53.130;8.244;2023-04-25T09:21:04;2.97;;;1.40;;
10166;SDS011;62970;53.130;8.244;2023-04-25T09:23:39;4.60;;;1.60;;
10166;SDS011;62970;53.130;8.244;2023-04-25T09:26:09;2.20;;;1.20;;
10166;SDS011;62970;53.130;8.244;2023-04-25T09:28:42;4.03;;;1.60;;
10166;SDS011;62970;53.130;8.244;2023-04-25T09:31:20;4.90;;;1.43;;
10166;SDS011;62970;53.130;8.244;2023-04-25T09:33:54;3.37;;;1.50;;
10166;SDS011;62970;53.130;8.244;2023-04-25T09:36:29;4.03;;;1.30;;
10166;SDS011;62970;53.130;8.244;2023-04-25T09:38:59;6.50;;;2.10;;
10166;SDS011;62970;53.130;8.244;2023-04-25T09:41:29;2.37;;;1.20;;
10166;SDS011;62970;53.130;8.244;2023-04-25T09:43:58;2.53;;;1.13;;
10166;SDS011;62970;53.130;8.244;2023-04-25T09:46:32;2.20;;;1.03;;
10166;SDS011;62970;53.130;8.244;2023-04-25T09:49:08;2.10;;;1.00;;
10166;SDS011;62970;53.130;8.244;2023-04-25T09:51:38;3.37;;;1.40;;
10166;SDS011;62970;53.130;8.244;2023-04-25T09:54:07;2.17;;;0.97;;
10166;SDS011;62970;53.130;8.244;2023-04-25T09:56:37;2.30;;;0.97;;
10166;SDS011;62970;53.130;8.244;2023-04-25T09:59:06;1.57;;;1.07;;
10166;SDS011;62970;53.130;8.244;2023-04-25T10:01:37;2.67;;;1.30;;
10166;SDS011;62970;53.130;8.244;2023-04-25T10:04:10;3.23;;;1.23;;
10166;SDS011;62970;53.130;8.244;2023-04-25T10:06:41;3.17;;;1.20;;
10166;SDS011;62970;53.130;8.244;2023-04-25T10:09:12;1.93;;;1.10;;
10166;SDS011;62970;53.130;8.244;2023-04-25T10:11:43;3.27;;;1.13;;
10166;SDS011;62970;53.130;8.244;2023-04-25T10:14:14;3.60;;;1.30;;
10166;SDS011;62970;53.130;8.244;2023-04-25T10:16:47;2.07;;;1.07;;
10166;SDS011;62970;53.130;8.244;2023-04-25T10:19:21;3.43;;;1.40;;
10166;SDS011;62970;53.130;8.244;2023-04-25T10:21:52;2.90;;;1.27;;
10166;SDS011;62970;53.130;8.244;2023-04-25T10:24:30;2.80;;;1.37;;
10166;SDS011;62970;53.130;8.244;2023-04-25T10:27:00;4.03;;;1.63;;
10166;SDS011;62970;53.130;8.244;2023-04-25T10:29:30;3.87;;;1.57;;
10166;SDS011;62970;53.130;8.244;2023-04-25T10:31:59;2.53;;;1.20;;
10166;SDS011;62970;53.130;8.244;2023-04-25T10:34:41;6.17;;;1.50;;
10166;SDS011;62970;53.130;8.244;2023-04-25T10:37:13;5.10;;;1.60;;
10166;SDS011;62970;53.130;8.244;2023-04-25T10:39:43;4.90;;;1.70;;
10166;SDS011;62970;53.130;8.244;2023-04-25T10:42:14;3.37;;;1.53;;
10166;SDS011;62970;53.130;8.244;2023-04-25T10:44:47;5.23;;;1.80;;
10166;SDS011;62970;53.130;8.244;2023-04-25T10:47:34;3.60;;;1.60;;
10166;SDS011;62970;53.130;8.244;2023-04-25T10:50:07;3.77;;;1.50;;
10166;SDS011;62970;53.130;8.244;2023-04-25T10:52:38;2.80;;;1.30;;
10166;SDS011;62970;53.130;8.244;2023-04-25T10:55:08;3.10;;;1.10;;
10166;SDS011;62970;53.130;8.244;2023-04-25T10:57:39;2.60;;;1.20;;
10166;SDS011;62970;53.130;8.244;2023-04-25T11:00:15;3.33;;;1.17;;
10166;SDS011;62970;53.130;8.244;2023-04-25T11:02:47;2.90;;;1.20;;
10166;SDS011;62970;53.130;8.244;2023-04-25T11:05:31;3.90;;;1.67;;
10166;SDS011;62970;53.130;8.244;2023-04-25T11:08:03;1.80;;;1.10;;
10166;SDS011;62970;53.130;8.244;2023-04-25T11:10:41;3.30;;;1.50;;
10166;SDS011;62970;53.130;8.244;2023-04-25T11:13:10;3.53;;;1.17;;
10166;SDS011;62970;53.130;8.244;2023-04-25T11:15:40;2.80;;;1.30;;
10166;SDS011;62970;53.130;8.244;2023-04-25T11:18:09;3.23;;;1.40;;
10166;SDS011;62970;53.130;8.244;2023-04-25T11:20:46;4.40;;;1.50;;
10166;SDS011;62970;53.130;8.244;2023-04-25T11:23:17;2.87;;;1.03;;
10166;SDS011;62970;53.130;8.244;2023-04-25T11:25:48;2.60;;;1.20;;
10166;SDS011;62970;53.130;8.244;2023-04-25T11:28:20;3.67;;;1.23;;
10166;SDS011;62970;53.130;8.244;2023-04-25T11:30:53;4.07;;;1.40;;
10166;SDS011;62970;53.130;8.244;2023-04-25T11:33:23;3.33;;;1.40;;
10166;SDS011;62970;53.130;8.244;2023-04-25T11:35:55;3.17;;;1.23;;
10166;SDS011;62970;53.130;8.244;2023-04-25T11:38:25;3.00;;;1.50;;
10166;SDS011;62970;53.130;8.244;2023-04-25T11:40:55;3.13;;;1.50;;
10166;SDS011;62970;53.130;8.244;2023-04-25T11:43:25;3.90;;;1.47;;
10166;SDS011;62970;53.130;8.244;2023-04-25T11:45:54;4.60;;;1.70;;
10166;SDS011;62970;53.130;8.244;2023-04-25T11:48:24;3.93;;;1.70;;
10166;SDS011;62970;53.130;8.244;2023-04-25T11:50:59;2.10;;;1.40;;
10166;SDS011;62970;53.130;8.244;2023-04-25T11:53:29;4.67;;;1.53;;
10166;SDS011;62970;53.130;8.244;2023-04-25T11:55:58;4.40;;;1.70;;
10166;SDS011;62970;53.130;8.244;2023-04-25T11:58:28;2.77;;;1.40;;
10166;SDS011;62970;53.130;8.244;2023-04-25T12:00:57;6.53;;;2.00;;
10166;SDS011;62970;53.130;8.244;2023-04-25T12:03:29;4.23;;;1.73;;
10166;SDS011;62970;53.130;8.244;2023-04-25T12:06:04;3.43;;;1.47;;
10166;SDS011;62970;53.130;8.244;2023-04-25T12:08:34;2.73;;;1.70;;
10166;SDS011;62970;53.130;8.244;2023-04-25T12:11:03;3.13;;;1.50;;
10166;SDS011;62970;53.130;8.244;2023-04-25T12:13:33;2.20;;;1.33;;
10166;SDS011;62970;53.130;8.244;2023-04-25T12:16:03;5.13;;;1.57;;
10166;SDS011;62970;53.130;8.244;2023-04-25T12:18:33;2.43;;;1.33;;
10166;SDS011;62970;53.130;8.244;2023-04-25T12:21:07;3.03;;;1.27;;
10166;SDS011;62970;53.130;8.244;2023-04-25T12:23:38;3.53;;;1.33;;
10166;SDS011;62970;53.130;8.244;2023-04-25T12:26:08;3.00;;;1.40;;
10166;SDS011;62970;53.130;8.244;2023-04-25T12:28:37;4.13;;;1.27;;
10166;SDS011;62970;53.130;8.244;2023-04-25T12:31:06;3.13;;;1.27;;
10166;SDS011;62970;53.130;8.244;2023-04-25T12:33:36;2.37;;;1.17;;
10166;SDS011;62970;53.130;8.244;2023-04-25T12:36:10;2.10;;;1.23;;
10166;SDS011;62970;53.130;8.244;2023-04-25T12:38:40;1.60;;;1.30;;
10166;SDS011;62970;53.130;8.244;2023-04-25T12:41:10;1.07;;;0.97;;
10166;SDS011;62970;53.130;8.244;2023-04-25T12:43:39;3.03;;;1.13;;
10166;SDS011;62970;53.130;8.244;2023-04-25T12:46:08;5.23;;;1.50;;
10166;SDS011;62970;53.130;8.244;2023-04-25T12:48:37;3.67;;;1.40;;
10166;SDS011;62970;53.130;8.244;2023-04-25T12:51:07;3.03;;;1.30;;
10166;SDS011;62970;53.130;8.244;2023-04-25T12:53:39;2.60;;;1.40;;
10166;SDS011;62970;53.130;8.244;2023-04-25T12:56:09;2.80;;;1.20;;
10166;SDS011;62970;53.130;8.244;2023-04-25T12:58:38;2.27;;;1.07;;
10166;SDS011;62970;53.130;8.244;2023-04-25T13:01:09;1.90;;;1.00;;
10166;SDS011;62970;53.130;8.244;2023-04-25T13:03:39;1.10;;;1.00;;
10166;SDS011;62970;53.130;8.244;2023-04-25T13:06:11;2.67;;;1.17;;
10166;SDS011;62970;53.130;8.244;2023-04-25T13:08:40;1.43;;;1.13;;
10166;SDS011;62970;53.130;8.244;2023-04-25T13:11:10;1.50;;;1.07;;
10166;SDS011;62970;53.130;8.244;2023-04-25T13:13:39;4.13;;;1.60;;
10166;SDS011;62970;53.130;8.244;2023-04-25T13:16:09;2.70;;;1.27;;
10166;SDS011;62970;53.130;8.244;2023-04-25T13:18:39;3.23;;;1.47;;
10166;SDS011;62970;53.130;8.244;2023-04-25T13:21:11;3.20;;;1.60;;
10166;SDS011;62970;53.130;8.244;2023-04-25T13:23:40;3.83;;;1.50;;
10166;SDS011;62970;53.130;8.244;2023-04-25T13:26:11;4.27;;;1.40;;
10166;SDS011;62970;53.130;8.244;2023-04-25T13:28:41;2.97;;;1.17;;
10166;SDS011;62970;53.130;8.244;2023-04-25T13:31:10;2.43;;;1.30;;
10166;SDS011;62970;53.130;8.244;2023-04-25T13:33:39;3.33;;;1.23;;
10166;SDS011;62970;53.130;8.244;2023-04-25T13:39:02;4.47;;;1.10;;
10166;SDS011;62970;53.130;8.244;2023-04-25T13:41:33;2.33;;;1.23;;
10166;SDS011;62970;53.130;8.244;2023-04-25T13:44:02;2.80;;;0.90;;
10166;SDS011;62970;53.130;8.244;2023-04-25T13:46:32;3.73;;;1.30;;
10166;SDS011;62970;53.130;8.244;2023-04-25T13:49:02;3.40;;;1.53;;
10166;SDS011;62970;53.130;8.244;2023-04-25T13:51:32;2.73;;;1.47;;
10166;SDS011;62970;53.130;8.244;2023-04-25T13:54:06;1.97;;;1.10;;
10166;SDS011;62970;53.130;8.244;2023-04-25T13:56:38;4.90;;;1.30;;
10166;SDS011;62970;53.130;8.244;2023-04-25T13:59:08;2.67;;;1.13;;
10166;SDS011;62970;53.130;8.244;2023-04-25T14:01:39;2.87;;;1.40;;
10166;SDS011;62970;53.130;8.244;2023-04-25T14:04:08;2.57;;;1.30;;
10166;SDS011;62970;53.130;8.244;2023-04-25T14:06:38;2.47;;;1.37;;
10166;SDS011;62970;53.130;8.244;2023-04-25T14:09:12;1.80;;;1.23;;
10166;SDS011;62970;53.130;8.244;2023-04-25T14:11:41;2.27;;;1.40;;
10166;SDS011;62970;53.130;8.244;2023-04-25T14:14:11;2.53;;;1.20;;
10166;SDS011;62970;53.130;8.244;2023-04-25T14:16:41;3.03;;;1.40;;
10166;SDS011;62970;53.130;8.244;2023-04-25T14:19:13;2.80;;;1.23;;
10166;SDS011;62970;53.130;8.244;2023-04-25T14:21:43;2.60;;;1.30;;
10166;SDS011;62970;53.130;8.244;2023-04-25T14:24:16;4.20;;;2.07;;
10166;SDS011;62970;53.130;8.244;2023-04-25T14:26:46;2.57;;;1.50;;
10166;SDS011;62970;53.130;8.244;2023-04-25T14:29:16;2.90;;;1.53;;
10166;SDS011;62970;53.130;8.244;2023-04-25T14:31:47;2.67;;;1.27;;
10166;SDS011;62970;53.130;8.244;2023-04-25T14:34:17;2.27;;;1.67;;
10166;SDS011;62970;53.130;8.244;2023-04-25T14:36:47;3.80;;;1.70;;
10166;SDS011;62970;53.130;8.244;2023-04-25T14:39:20;3.70;;;1.60;;
10166;SDS011;62970;53.130;8.244;2023-04-25T14:41:50;3.23;;;1.23;;
10166;SDS011;62970;53.130;8.244;2023-04-25T14:44:19;2.40;;;1.50;;
10166;SDS011;62970;53.130;8.244;2023-04-25T14:46:49;2.33;;;1.37;;
10166;SDS011;62970;53.130;8.244;2023-04-25T14:49:20;3.00;;;1.20;;
10166;SDS011;62970;53.130;8.244;2023-04-25T14:51:49;2.57;;;1.33;;
10166;SDS011;62970;53.130;8.244;2023-04-25T14:54:23;4.30;;;1.30;;
10166;SDS011;62970;53.130;8.244;2023-04-25T14:56:53;2.30;;;1.30;;
10166;SDS011;62970;53.130;8.244;2023-04-25T14:59:22;3.63;;;1.20;;
10166;SDS011;62970;53.130;8.244;2023-04-25T15:01:53;2.37;;;1.10;;
10166;SDS011;62970;53.130;8.244;2023-04-25T15:04:23;3.03;;;1.23;;
10166;SDS011;62970;53.130;8.244;2023-04-25T15:06:52;3.03;;;1.23;;
10166;SDS011;62970;53.130;8.244;2023-04-25T15:09:25;3.50;;;1.37;;
10166;SDS011;62970;53.130;8.244;2023-04-25T15:11:55;3.27;;;1.30;;
10166;SDS011;62970;53.130;8.244;2023-04-25T15:14:38;2.80;;;1.40;;
10166;SDS011;62970;53.130;8.244;2023-04-25T15:17:07;3.57;;;1.37;;
10166;SDS011;62970;53.130;8.244;2023-04-25T15:19:39;2.70;;;1.20;;
10166;SDS011;62970;53.130;8.244;2023-04-25T15:24:57;2.67;;;1.40;;
10166;SDS011;62970;53.130;8.244;2023-04-25T15:27:28;2.33;;;1.10;;
10166;SDS011;62970;53.130;8.244;2023-04-25T15:29:59;2.20;;;1.13;;
10166;SDS011;62970;53.130;8.244;2023-04-25T15:35:10;3.10;;;1.50;;
10166;SDS011;62970;53.130;8.244;2023-04-25T15:37:41;3.13;;;1.37;;
10166;SDS011;62970;53.130;8.244;2023-04-25T15:40:14;4.40;;;1.40;;
10166;SDS011;62970;53.130;8.244;2023-04-25T15:45:20;1.93;;;1.17;;
10166;SDS011;62970;53.130;8.244;2023-04-25T15:50:21;2.20;;;1.27;;
10166;SDS011;62970;53.130;8.244;2023-04-25T15:52:55;3.07;;;1.10;;
10166;SDS011;62970;53.130;8.244;2023-04-25T15:55:27;1.80;;;1.00;;
10166;SDS011;62970;53.130;8.244;2023-04-25T15:57:58;5.47;;;1.73;;
10166;SDS011;62970;53.130;8.244;2023-04-25T16:00:28;3.97;;;1.70;;
10166;SDS011;62970;53.130;8.244;2023-04-25T16:03:00;2.00;;;1.03;;
10166;SDS011;62970;53.130;8.244;2023-04-25T16:05:30;2.47;;;1.20;;
10166;SDS011;62970;53.130;8.244;2023-04-25T16:08:00;2.93;;;1.40;;
10166;SDS011;62970;53.130;8.244;2023-04-25T16:10:32;3.03;;;1.20;;
10166;SDS011;62970;53.130;8.244;2023-04-25T16:13:01;2.37;;;1.57;;
10166;SDS011;62970;53.130;8.244;2023-04-25T16:15:30;3.90;;;1.53;;
10166;SDS011;62970;53.130;8.244;2023-04-25T16:18:00;2.50;;;1.40;;
10166;SDS011;62970;53.130;8.244;2023-04-25T16:20:29;2.83;;;1.40;;
10166;SDS011;62970;53.130;8.244;2023-04-25T16:22:58;3.63;;;1.53;;
10166;SDS011;62970;53.130;8.244;2023-04-25T16:25:28;3.63;;;1.63;;
10166;SDS011;62970;53.130;8.244;2023-04-25T16:27:59;3.83;;;1.33;;
10166;SDS011;62970;53.130;8.244;2023-04-25T16:30:29;4.63;;;1.57;;
10166;SDS011;62970;53.130;8.244;2023-04-25T16:32:58;2.63;;;1.27;;
10166;SDS011;62970;53.130;8.244;2023-04-25T16:35:27;3.80;;;1.50;;
10166;SDS011;62970;53.130;8.244;2023-04-25T16:37:57;2.53;;;1.50;;
10166;SDS011;62970;53.130;8.244;2023-04-25T16:40:27;3.53;;;1.50;;
10166;SDS011;62970;53.130;8.244;2023-04-25T16:42:56;3.50;;;1.40;;
10166;SDS011;62970;53.130;8.244;2023-04-25T16:45:28;5.60;;;1.53;;
10166;SDS011;62970;53.130;8.244;2023-04-25T16:47:57;2.47;;;1.30;;
10166;SDS011;62970;53.130;8.244;2023-04-25T16:50:27;2.07;;;1.17;;
10166;SDS011;62970;53.130;8.244;2023-04-25T16:52:56;5.03;;;1.57;;
10166;SDS011;62970;53.130;8.244;2023-04-25T16:55:27;2.83;;;1.20;;
10166;SDS011;62970;53.130;8.244;2023-04-25T16:57:56;3.40;;;1.40;;
10166;SDS011;62970;53.130;8.244;2023-04-25T17:00:28;2.83;;;1.40;;
10166;SDS011;62970;53.130;8.244;2023-04-25T17:02:58;3.03;;;1.50;;
10166;SDS011;62970;53.130;8.244;2023-04-25T17:05:27;3.03;;;1.50;;
10166;SDS011;62970;53.130;8.244;2023-04-25T17:07:57;2.73;;;1.50;;
10166;SDS011;62970;53.130;8.244;2023-04-25T17:10:26;3.93;;;1.50;;
10166;SDS011;62970;53.130;8.244;2023-04-25T17:13:00;2.60;;;1.27;;
10166;SDS011;62970;53.130;8.244;2023-04-25T17:15:30;3.63;;;1.30;;
10166;SDS011;62970;53.130;8.244;2023-04-25T17:17:59;4.97;;;1.70;;
10166;SDS011;62970;53.130;8.244;2023-04-25T17:20:28;3.10;;;1.47;;
10166;SDS011;62970;53.130;8.244;2023-04-25T17:22:58;4.07;;;1.47;;
10166;SDS011;62970;53.130;8.244;2023-04-25T17:25:27;2.53;;;1.70;;
10166;SDS011;62970;53.130;8.244;2023-04-25T17:28:00;4.10;;;1.87;;
10166;SDS011;62970;53.130;8.244;2023-04-25T17:30:29;3.93;;;1.57;;
10166;SDS011;62970;53.130;8.244;2023-04-25T17:32:58;4.73;;;1.67;;
10166;SDS011;62970;53.130;8.244;2023-04-25T17:35:28;5.53;;;1.50;;
10166;SDS011;62970;53.130;8.244;2023-04-25T17:37:58;5.37;;;1.40;;
10166;SDS011;62970;53.130;8.244;2023-04-25T17:40:28;4.13;;;1.80;;
10166;SDS011;62970;53.130;8.244;2023-04-25T17:43:00;4.57;;;1.77;;
10166;SDS011;62970;53.130;8.244;2023-04-25T17:47:59;3.47;;;1.70;;
10166;SDS011;62970;53.130;8.244;2023-04-25T17:50:29;3.30;;;1.70;;
10166;SDS011;62970;53.130;8.244;2023-04-25T17:52:59;4.80;;;1.80;;
10166;SDS011;62970;53.130;8.244;2023-04-25T17:55:30;3.67;;;1.33;;
10166;SDS011;62970;53.130;8.244;2023-04-25T17:58:02;4.00;;;1.57;;
10166;SDS011;62970;53.130;8.244;2023-04-25T18:00:33;5.50;;;1.50;;
10166;SDS011;62970;53.130;8.244;2023-04-25T18:03:02;3.10;;;1.50;;
10166;SDS011;62970;53.130;8.244;2023-04-25T18:05:32;6.80;;;1.57;;
10166;SDS011;62970;53.130;8.244;2023-04-25T18:08:01;4.80;;;1.40;;
10166;SDS011;62970;53.130;8.244;2023-04-25T18:10:31;4.03;;;1.50;;
10166;SDS011;62970;53.130;8.244;2023-04-25T18:13:03;2.90;;;1.20;;
10166;SDS011;62970;53.130;8.244;2023-04-25T18:15:33;5.77;;;1.60;;
10166;SDS011;62970;53.130;8.244;2023-04-25T18:18:02;4.40;;;1.60;;
10166;SDS011;62970;53.130;8.244;2023-04-25T18:20:39;3.33;;;1.60;;
10166;SDS011;62970;53.130;8.244;2023-04-25T18:23:09;2.97;;;1.70;;
10166;SDS011;62970;53.130;8.244;2023-04-25T18:25:38;4.37;;;2.23;;
10166;SDS011;62970;53.130;8.244;2023-04-25T18:28:10;4.53;;;1.60;;
10166;SDS011;62970;53.130;8.244;2023-04-25T18:30:39;4.57;;;1.90;;
10166;SDS011;62970;53.130;8.244;2023-04-25T18:33:08;6.77;;;1.90;;
10166;SDS011;62970;53.130;8.244;2023-04-25T18:35:38;4.30;;;1.80;;
10166;SDS011;62970;53.130;8.244;2023-04-25T18:38:07;5.80;;;1.87;;
10166;SDS011;62970;53.130;8.244;2023-04-25T18:40:36;4.50;;;1.60;;
10166;SDS011;62970;53.130;8.244;2023-04-25T18:43:06;5.13;;;1.70;;
10166;SDS011;62970;53.130;8.244;2023-04-25T18:45:38;5.50;;;1.83;;
10166;SDS011;62970;53.130;8.244;2023-04-25T18:48:08;4.03;;;1.70;;
10166;SDS011;62970;53.130;8.244;2023-04-25T18:50:37;4.80;;;1.70;;
10166;SDS011;62970;53.130;8.244;2023-04-25T18:53:07;4.33;;;1.80;;
10166;SDS011;62970;53.130;8.244;2023-04-25T18:55:37;5.20;;;1.50;;
10166;SDS011;62970;53.130;8.244;2023-04-25T18:58:07;4.90;;;1.60;;
10166;SDS011;62970;53.130;8.244;2023-04-25T19:00:39;5.67;;;1.83;;
10166;SDS011;62970;53.130;8.244;2023-04-25T19:03:08;5.23;;;1.80;;
10166;SDS011;62970;53.130;8.244;2023-04-25T19:05:38;4.53;;;2.17;;
10166;SDS011;62970;53.130;8.244;2023-04-25T19:08:07;3.43;;;1.57;;
10166;SDS011;62970;53.130;8.244;2023-04-25T19:10:37;4.13;;;1.70;;
10166;SDS011;62970;53.130;8.244;2023-04-25T19:13:06;2.57;;;1.53;;
10166;SDS011;62970;53.130;8.244;2023-04-25T19:15:39;4.40;;;1.73;;
10166;SDS011;62970;53.130;8.244;2023-04-25T19:18:08;3.67;;;1.70;;
10166;SDS011;62970;53.130;8.244;2023-04-25T19:20:38;4.60;;;1.83;;
10166;SDS011;62970;53.130;8.244;2023-04-25T19:23:08;4.00;;;2.10;;
10166;SDS011;62970;53.130;8.244;2023-04-25T19:25:37;6.00;;;2.13;;
10166;SDS011;62970;53.130;8.244;2023-04-25T19:28:07;7.73;;;1.90;;
10166;SDS011;62970;53.130;8.244;2023-04-25T19:30:40;4.67;;;1.50;;
10166;SDS011;62970;53.130;8.244;2023-04-25T19:33:10;3.77;;;1.73;;
10166;SDS011;62970;53.130;8.244;2023-04-25T19:35:39;4.30;;;2.00;;
10166;SDS011;62970;53.130;8.244;2023-04-25T19:38:09;4.77;;;1.70;;
10166;SDS011;62970;53.130;8.244;2023-04-25T19:40:39;4.43;;;2.00;;
10166;SDS011;62970;53.130;8.244;2023-04-25T19:43:09;5.77;;;2.20;;
10166;SDS011;62970;53.130;8.244;2023-04-25T19:45:41;4.43;;;1.70;;
10166;SDS011;62970;53.130;8.244;2023-04-25T19:48:10;5.13;;;2.03;;
10166;SDS011;62970;53.130;8.244;2023-04-25T19:50:39;5.47;;;1.90;;
10166;SDS011;62970;53.130;8.244;2023-04-25T19:53:12;4.50;;;1.90;;
10166;SDS011;62970;53.130;8.244;2023-04-25T19:55:41;4.03;;;1.70;;
10166;SDS011;62970;53.130;8.244;2023-04-25T19:58:10;5.40;;;2.10;;
10166;SDS011;62970;53.130;8.244;2023-04-25T20:00:41;7.07;;;2.17;;
10166;SDS011;62970;53.130;8.244;2023-04-25T20:03:11;3.40;;;1.70;;
10166;SDS011;62970;53.130;8.244;2023-04-25T20:05:40;5.37;;;2.03;;
10166;SDS011;62970;53.130;8.244;2023-04-25T20:08:09;5.57;;;2.00;;
10166;SDS011;62970;53.130;8.244;2023-04-25T20:10:38;6.27;;;2.03;;
10166;SDS011;62970;53.130;8.244;2023-04-25T20:13:08;6.50;;;2.33;;
10166;SDS011;62970;53.130;8.244;2023-04-25T20:15:37;4.93;;;2.00;;
10166;SDS011;62970;53.130;8.244;2023-04-25T20:18:09;4.57;;;2.00;;
10166;SDS011;62970;53.130;8.244;2023-04-25T20:20:38;5.67;;;2.20;;
10166;SDS011;62970;53.130;8.244;2023-04-25T20:23:07;6.50;;;2.10;;
10166;SDS011;62970;53.130;8.244;2023-04-25T20:25:37;4.07;;;1.90;;
10166;SDS011;62970;53.130;8.244;2023-04-25T20:28:07;3.87;;;1.90;;
10166;SDS011;62970;53.130;8.244;2023-04-25T20:30:36;3.23;;;1.80;;
10166;SDS011;62970;53.130;8.244;2023-04-25T20:33:05;6.47;;;2.27;;
10166;SDS011;62970;53.130;8.244;2023-04-25T20:35:37;5.53;;;2.00;;
10166;SDS011;62970;53.130;8.244;2023-04-25T20:38:07;4.33;;;2.27;;
10166;SDS011;62970;53.130;8.244;2023-04-25T20:40:36;5.10;;;1.90;;
10166;SDS011;62970;53.130;8.244;2023-04-25T20:43:05;5.30;;;1.73;;
10166;SDS011;62970;53.130;8.244;2023-04-25T20:45:36;6.53;;;1.87;;
10166;SDS011;62970;53.130;8.244;2023-04-25T20:48:05;5.63;;;2.00;;
10166;SDS011;62970;53.130;8.244;2023-04-25T20:50:37;4.63;;;1.90;;
10166;SDS011;62970;53.130;8.244;2023-04-25T20:53:06;4.17;;;1.90;;
10166;SDS011;62970;53.130;8.244;2023-04-25T20:55:36;3.67;;;1.80;;
10166;SDS011;62970;53.130;8.244;2023-04-25T20:58:05;5.00;;;2.00;;
10166;SDS011;62970;53.130;8.244;2023-04-25T21:00:34;4.93;;;1.90;;
10166;SDS011;62970;53.130;8.244;2023-04-25T21:03:04;6.23;;;2.03;;
10166;SDS011;62970;53.130;8.244;2023-04-25T21:05:37;4.97;;;2.30;;
10166;SDS011;62970;53.130;8.244;2023-04-25T21:08:06;5.97;;;2.20;;
10166;SDS011;62970;53.130;8.244;2023-04-25T21:10:35;3.83;;;1.83;;